Time;durP1;ratioP1;P1;durP2;ratioP2;P2;SDS_P1;SDS_P2;PMS_P1;PMS_P2;Temp;Humidity;BMP_temperature;BMP_pressure;BME280_temperature;BME280_humidity;BME280_pressure;Samples;Min_cycle;Max_cycle;Signal;HPM_P1;HPM_P2
2023/11/20 00:01:59;;;;;;;0.10;0.10;;;;;;;;;;5039133;28;20056;-87
2023/11/20 00:04:25;;;;;;;0.15;0.15;;;;;;;;;;5022631;28;20047;-87
2023/11/20 00:06:51;;;;;;;0.10;0.10;;;;;;;;;;5039043;28;20349;-87
2023/11/20 00:09:17;;;;;;;0.10;0.10;;;;;;;;;;5038915;28;20400;-86
2023/11/20 00:11:43;;;;;;;0.10;0.10;;;;;;;;;;5038939;28;20047;-87
2023/11/20 00:14:09;;;;;;;0.20;0.20;;;;;;;;;;5022407;28;20041;-87
2023/11/20 00:16:35;;;;;;;0.10;0.10;;;;;;;;;;5038911;28;20047;-87
2023/11/20 00:19:03;;;;;;;0.17;0.17;;;;;;;;;;5039021;28;20048;-87
2023/11/20 00:21:31;;;;;;;0.10;0.10;;;;;;;;;;5038642;28;20499;-87
2023/11/20 00:23:58;;;;;;;0.10;0.10;;;;;;;;;;5022781;28;20123;-87
2023/11/20 00:26:24;;;;;;;0.10;0.10;;;;;;;;;;5038689;28;20088;-87
2023/11/20 00:28:53;;;;;;;0.10;0.10;;;;;;;;;;5038701;28;20129;-87
2023/11/20 00:31:19;;;;;;;0.10;0.10;;;;;;;;;;5022476;28;20082;-87
2023/11/20 00:33:45;;;;;;;0.10;0.10;;;;;;;;;;5038757;28;20460;-87
2023/11/20 00:36:12;;;;;;;0.10;0.10;;;;;;;;;;5055254;28;20040;-86
2023/11/20 00:38:38;;;;;;;0.10;0.10;;;;;;;;;;5038432;28;20048;-86
2023/11/20 00:41:04;;;;;;;0.20;0.20;;;;;;;;;;5054763;28;20055;-87
2023/11/20 00:43:31;;;;;;;0.10;0.10;;;;;;;;;;5022318;28;20387;-87
2023/11/20 00:45:57;;;;;;;0.10;0.10;;;;;;;;;;5022006;28;20043;-87
2023/11/20 00:48:23;;;;;;;0.10;0.10;;;;;;;;;;5038391;28;20037;-87
2023/11/20 00:50:49;;;;;;;0.10;0.10;;;;;;;;;;5054645;28;20398;-86
2023/11/20 00:53:15;;;;;;;0.10;0.10;;;;;;;;;;5021771;28;20044;-87
2023/11/20 00:55:41;;;;;;;0.10;0.10;;;;;;;;;;5054630;28;20071;-87
2023/11/20 00:58:07;;;;;;;0.10;0.10;;;;;;;;;;5037521;28;20043;-87
2023/11/20 01:00:33;;;;;;;0.10;0.10;;;;;;;;;;5037932;28;20059;-87
2023/11/20 01:02:59;;;;;;;0.10;0.10;;;;;;;;;;5021612;28;20059;-87
2023/11/20 01:05:25;;;;;;;0.10;0.10;;;;;;;;;;5021441;28;20048;-87
2023/11/20 01:07:51;;;;;;;0.10;0.10;;;;;;;;;;5054360;28;20078;-87
2023/11/20 01:10:17;;;;;;;0.10;0.10;;;;;;;;;;5021276;28;20040;-88
2023/11/20 01:12:43;;;;;;;0.10;0.10;;;;;;;;;;5037882;28;20392;-88
2023/11/20 01:15:09;;;;;;;0.10;0.10;;;;;;;;;;5021353;28;20101;-88
2023/11/20 01:17:35;;;;;;;0.10;0.10;;;;;;;;;;5021539;28;20048;-88
2023/11/20 01:20:02;;;;;;;0.40;0.40;;;;;;;;;;5021283;28;20498;-88
2023/11/20 01:22:28;;;;;;;0.20;0.20;;;;;;;;;;5021264;28;20041;-88
2023/11/20 01:24:54;;;;;;;0.10;0.10;;;;;;;;;;5021534;28;20037;-89
2023/11/20 01:27:20;;;;;;;0.10;0.10;;;;;;;;;;5021415;28;20128;-88
2023/11/20 01:29:46;;;;;;;0.10;0.10;;;;;;;;;;5037593;28;20036;-88
2023/11/20 01:32:13;;;;;;;0.10;0.10;;;;;;;;;;5037557;28;20566;-88
2023/11/20 01:34:39;;;;;;;0.10;0.10;;;;;;;;;;5021208;28;20127;-88
2023/11/20 01:37:08;;;;;;;0.10;0.10;;;;;;;;;;5037793;28;20402;-88
2023/11/20 01:39:34;;;;;;;0.10;0.10;;;;;;;;;;5021646;28;20040;-88
2023/11/20 01:42:00;;;;;;;0.10;0.10;;;;;;;;;;5037535;28;20098;-88
2023/11/20 01:44:26;;;;;;;0.10;0.10;;;;;;;;;;5037464;28;20037;-88
2023/11/20 01:46:52;;;;;;;0.10;0.10;;;;;;;;;;5021295;28;20040;-87
2023/11/20 01:49:18;;;;;;;0.45;0.30;;;;;;;;;;5037686;28;20403;-87
2023/11/20 01:51:45;;;;;;;0.10;0.10;;;;;;;;;;5037308;28;20036;-87
2023/11/20 01:54:11;;;;;;;0.10;0.10;;;;;;;;;;5037413;28;20048;-87
2023/11/20 01:56:36;;;;;;;0.10;0.10;;;;;;;;;;5021264;28;20085;-87
2023/11/20 01:59:06;;;;;;;0.10;0.10;;;;;;;;;;5037465;28;20053;-87
2023/11/20 02:01:32;;;;;;;0.10;0.10;;;;;;;;;;5021134;28;20408;-87
2023/11/20 02:04:03;;;;;;;0.10;0.10;;;;;;;;;;5037408;28;20040;-87
2023/11/20 02:06:29;;;;;;;0.10;0.10;;;;;;;;;;5037277;28;20046;-87
2023/11/20 02:08:55;;;;;;;0.20;0.20;;;;;;;;;;5021365;28;20044;-87
2023/11/20 02:11:21;;;;;;;0.10;0.10;;;;;;;;;;5024791;28;20084;-87
2023/11/20 02:13:48;;;;;;;0.10;0.10;;;;;;;;;;5057836;28;20070;-87
2023/11/20 02:16:14;;;;;;;0.28;0.28;;;;;;;;;;5024637;28;20041;-87
2023/11/20 02:18:41;;;;;;;0.10;0.10;;;;;;;;;;5041050;28;20049;-87
2023/11/20 02:21:07;;;;;;;0.10;0.10;;;;;;;;;;5024562;28;20123;-87
2023/11/20 02:23:33;;;;;;;0.10;0.10;;;;;;;;;;5040985;28;20140;-87
2023/11/20 02:26:18;;;;;;;0.10;0.10;;;;;;;;;;5041014;28;20051;-87
2023/11/20 02:28:51;;;;;;;0.10;0.10;;;;;;;;;;5057679;28;20093;-87
2023/11/20 02:31:17;;;;;;;0.10;0.10;;;;;;;;;;5041004;28;20437;-87
2023/11/20 02:33:43;;;;;;;0.10;0.10;;;;;;;;;;5040840;28;20036;-87
2023/11/20 02:36:09;;;;;;;0.10;0.10;;;;;;;;;;5057526;28;20040;-87
2023/11/20 02:38:36;;;;;;;0.10;0.10;;;;;;;;;;5040665;28;20041;-87
2023/11/20 02:41:02;;;;;;;0.10;0.10;;;;;;;;;;5040715;28;20040;-87
2023/11/20 02:43:28;;;;;;;0.10;0.10;;;;;;;;;;5040929;28;20055;-87
2023/11/20 02:45:55;;;;;;;0.10;0.10;;;;;;;;;;5040492;28;20047;-87
2023/11/20 02:48:22;;;;;;;0.10;0.10;;;;;;;;;;5024586;28;20426;-87
2023/11/20 02:50:49;;;;;;;0.10;0.10;;;;;;;;;;5040557;28;20040;-87
2023/11/20 02:53:15;;;;;;;0.10;0.10;;;;;;;;;;5040645;28;20044;-87
2023/11/20 02:55:41;;;;;;;0.10;0.10;;;;;;;;;;5040380;28;20048;-86
2023/11/20 02:58:07;;;;;;;0.10;0.10;;;;;;;;;;5024169;28;20045;-87
2023/11/20 03:00:33;;;;;;;0.20;0.20;;;;;;;;;;5040058;28;20057;-87
2023/11/20 03:03:00;;;;;;;0.10;0.10;;;;;;;;;;5057071;28;20098;-87
2023/11/20 03:05:26;;;;;;;0.10;0.10;;;;;;;;;;5040060;28;20040;-87
2023/11/20 03:07:53;;;;;;;0.10;0.10;;;;;;;;;;5040046;28;20103;-87
2023/11/20 03:10:19;;;;;;;0.10;0.10;;;;;;;;;;5056824;28;20040;-87
2023/11/20 03:12:45;;;;;;;0.10;0.10;;;;;;;;;;5040220;28;20048;-87
2023/11/20 03:15:11;;;;;;;0.10;0.10;;;;;;;;;;5040124;28;20047;-88
2023/11/20 03:17:37;;;;;;;0.10;0.10;;;;;;;;;;5040012;28;20139;-88
2023/11/20 03:20:03;;;;;;;0.10;0.10;;;;;;;;;;5022905;28;20048;-88
2023/11/20 03:22:29;;;;;;;0.10;0.10;;;;;;;;;;5039041;28;20037;-88
2023/11/20 03:24:55;;;;;;;0.22;0.22;;;;;;;;;;5039835;28;20093;-88
2023/11/20 03:27:21;;;;;;;0.20;0.20;;;;;;;;;;5039509;28;20399;-88
2023/11/20 03:29:47;;;;;;;0.10;0.10;;;;;;;;;;5056010;28;20041;-88
2023/11/20 03:32:13;;;;;;;0.10;0.10;;;;;;;;;;5039738;28;20488;-88
2023/11/20 03:34:39;;;;;;;0.10;0.10;;;;;;;;;;5039852;28;20071;-87
2023/11/20 03:37:05;;;;;;;0.10;0.10;;;;;;;;;;5039702;28;20040;-87
2023/11/20 03:39:31;;;;;;;0.10;0.10;;;;;;;;;;5023061;28;20484;-87
2023/11/20 03:41:57;;;;;;;0.10;0.10;;;;;;;;;;5023136;28;20484;-87
2023/11/20 03:44:23;;;;;;;0.10;0.10;;;;;;;;;;5039528;28;20054;-87
2023/11/20 03:46:49;;;;;;;0.10;0.10;;;;;;;;;;5055972;28;20032;-87
2023/11/20 03:49:15;;;;;;;0.10;0.10;;;;;;;;;;5039431;28;20123;-87
2023/11/20 03:51:41;;;;;;;0.10;0.10;;;;;;;;;;5039522;28;20047;-87
2023/11/20 03:54:08;;;;;;;0.10;0.10;;;;;;;;;;5039314;28;20040;-87
2023/11/20 03:56:34;;;;;;;0.10;0.10;;;;;;;;;;5039308;28;20228;-88
2023/11/20 03:59:00;;;;;;;0.10;0.10;;;;;;;;;;5039418;28;20036;-88
2023/11/20 04:01:26;;;;;;;0.10;0.10;;;;;;;;;;5055598;28;20063;-88
2023/11/20 04:03:52;;;;;;;0.10;0.10;;;;;;;;;;5023003;28;20137;-88
2023/11/20 04:06:18;;;;;;;0.10;0.10;;;;;;;;;;5039171;28;20036;-88
2023/11/20 04:08:44;;;;;;;0.10;0.10;;;;;;;;;;5022738;28;20033;-88
2023/11/20 04:11:10;;;;;;;0.10;0.10;;;;;;;;;;5039006;28;20066;-88
2023/11/20 04:13:36;;;;;;;0.10;0.10;;;;;;;;;;5039014;28;20059;-88
2023/11/20 04:16:04;;;;;;;0.10;0.10;;;;;;;;;;5022745;28;20044;-86
2023/11/20 04:18:30;;;;;;;0.10;0.10;;;;;;;;;;5022782;28;20040;-87
2023/11/20 04:20:56;;;;;;;0.10;0.10;;;;;;;;;;5038730;28;20048;-87
2023/11/20 04:23:22;;;;;;;0.20;0.20;;;;;;;;;;5038866;28;20394;-87
2023/11/20 04:25:49;;;;;;;0.10;0.10;;;;;;;;;;5038807;28;20041;-87
2023/11/20 04:28:15;;;;;;;0.10;0.10;;;;;;;;;;5038677;28;20075;-87
2023/11/20 04:30:41;;;;;;;0.10;0.10;;;;;;;;;;5022441;28;20219;-87
2023/11/20 04:33:07;;;;;;;0.10;0.10;;;;;;;;;;5055056;28;20452;-86
2023/11/20 04:35:33;;;;;;;0.10;0.10;;;;;;;;;;5022161;28;20072;-87
2023/11/20 04:37:59;;;;;;;0.10;0.10;;;;;;;;;;5038378;28;20051;-86
2023/11/20 04:40:25;;;;;;;0.10;0.10;;;;;;;;;;5054747;28;20083;-87
2023/11/20 04:42:51;;;;;;;0.10;0.10;;;;;;;;;;5055159;28;20048;-86
2023/11/20 04:45:18;;;;;;;0.10;0.10;;;;;;;;;;5038534;28;20048;-87
2023/11/20 04:47:44;;;;;;;0.10;0.10;;;;;;;;;;5054946;28;20041;-86
2023/11/20 04:50:10;;;;;;;0.10;0.10;;;;;;;;;;5021832;28;20044;-87
2023/11/20 04:52:36;;;;;;;0.10;0.10;;;;;;;;;;5038206;28;20480;-87
2023/11/20 04:55:04;;;;;;;0.10;0.10;;;;;;;;;;5038034;28;20041;-87
2023/11/20 04:57:30;;;;;;;0.10;0.10;;;;;;;;;;5054659;28;20094;-87
2023/11/20 04:59:57;;;;;;;0.10;0.10;;;;;;;;;;5054496;28;20047;-87
2023/11/20 05:02:25;;;;;;;0.10;0.10;;;;;;;;;;5021660;28;20045;-87
2023/11/20 05:04:51;;;;;;;0.10;0.10;;;;;;;;;;5021846;28;20036;-87
2023/11/20 05:07:17;;;;;;;0.10;0.10;;;;;;;;;;5021745;28;20047;-87
2023/11/20 05:09:43;;;;;;;0.10;0.10;;;;;;;;;;5037806;28;20032;-86
2023/11/20 05:12:09;;;;;;;0.10;0.10;;;;;;;;;;5054459;28;20040;-87
2023/11/20 05:14:35;;;;;;;0.20;0.20;;;;;;;;;;5021455;28;20040;-87
2023/11/20 05:17:01;;;;;;;0.10;0.10;;;;;;;;;;5021665;28;20082;-87
2023/11/20 05:19:27;;;;;;;0.10;0.10;;;;;;;;;;5037720;28;20040;-87
2023/11/20 05:21:53;;;;;;;0.10;0.10;;;;;;;;;;5037685;28;20045;-87
2023/11/20 05:24:20;;;;;;;0.10;0.10;;;;;;;;;;5037630;28;20440;-87
2023/11/20 05:26:45;;;;;;;0.10;0.10;;;;;;;;;;5037862;28;20488;-86
2023/11/20 05:29:12;;;;;;;0.10;0.10;;;;;;;;;;5021277;28;20098;-87
2023/11/20 05:31:38;;;;;;;0.10;0.10;;;;;;;;;;5037448;28;20040;-87
2023/11/20 05:34:04;;;;;;;0.10;0.10;;;;;;;;;;5054152;28;20059;-87
2023/11/20 05:36:30;;;;;;;0.10;0.10;;;;;;;;;;5037641;28;20438;-87
2023/11/20 05:38:56;;;;;;;0.10;0.10;;;;;;;;;;5037474;28;20050;-87
2023/11/20 05:41:22;;;;;;;0.10;0.10;;;;;;;;;;5037390;28;20036;-87
2023/11/20 05:43:48;;;;;;;0.10;0.10;;;;;;;;;;5020718;28;20083;-87
2023/11/20 05:46:14;;;;;;;0.10;0.10;;;;;;;;;;5054330;28;20039;-87
2023/11/20 05:48:40;;;;;;;0.10;0.10;;;;;;;;;;5037715;28;20094;-87
2023/11/20 05:51:06;;;;;;;0.10;0.10;;;;;;;;;;5021146;28;20461;-86
2023/11/20 05:53:32;;;;;;;0.10;0.10;;;;;;;;;;5037367;28;20079;-87
2023/11/20 05:55:58;;;;;;;0.10;0.10;;;;;;;;;;5054129;28;20076;-87
2023/11/20 05:58:24;;;;;;;0.10;0.10;;;;;;;;;;5037382;28;20044;-86
2023/11/20 06:00:50;;;;;;;0.10;0.10;;;;;;;;;;5037198;28;20455;-86
2023/11/20 06:03:16;;;;;;;0.10;0.10;;;;;;;;;;5020896;28;20040;-87
2023/11/20 06:05:42;;;;;;;0.10;0.10;;;;;;;;;;5054110;28;20112;-86
2023/11/20 06:08:08;;;;;;;0.10;0.10;;;;;;;;;;5053773;28;20455;-87
2023/11/20 06:10:34;;;;;;;0.10;0.10;;;;;;;;;;5037619;28;20063;-87
2023/11/20 06:13:00;;;;;;;0.10;0.10;;;;;;;;;;5037302;28;20043;-87
2023/11/20 06:15:26;;;;;;;0.10;0.10;;;;;;;;;;5053713;28;20052;-87
2023/11/20 06:17:52;;;;;;;0.10;0.10;;;;;;;;;;5037339;28;20110;-87
2023/11/20 06:20:18;;;;;;;0.10;0.10;;;;;;;;;;5020711;28;20506;-86
2023/11/20 06:22:44;;;;;;;0.10;0.10;;;;;;;;;;5037083;28;20036;-87
2023/11/20 06:25:12;;;;;;;0.10;0.10;;;;;;;;;;5037240;28;20041;-87
2023/11/20 06:27:38;;;;;;;0.10;0.10;;;;;;;;;;5037414;28;20040;-87
2023/11/20 06:30:05;;;;;;;0.10;0.10;;;;;;;;;;5020663;28;20039;-87
2023/11/20 06:32:31;;;;;;;0.15;0.15;;;;;;;;;;5020720;28;20048;-87
2023/11/20 06:34:57;;;;;;;0.10;0.10;;;;;;;;;;5021076;28;20098;-87
2023/11/20 06:37:23;;;;;;;0.10;0.10;;;;;;;;;;5020750;28;20040;-87
2023/11/20 06:39:49;;;;;;;0.10;0.10;;;;;;;;;;5036981;28;20476;-87
2023/11/20 06:42:15;;;;;;;0.10;0.10;;;;;;;;;;5053478;28;20044;-87
2023/11/20 06:44:41;;;;;;;0.10;0.10;;;;;;;;;;5036998;28;20068;-87
2023/11/20 06:47:07;;;;;;;0.30;0.30;;;;;;;;;;5020513;28;20109;-87
2023/11/20 06:49:34;;;;;;;0.10;0.10;;;;;;;;;;5037112;28;20486;-87
2023/11/20 06:52:00;;;;;;;0.10;0.10;;;;;;;;;;5020476;28;20040;-87
2023/11/20 06:54:26;;;;;;;0.10;0.10;;;;;;;;;;5053341;28;20051;-86
2023/11/20 06:56:53;;;;;;;0.10;0.10;;;;;;;;;;5038859;28;20040;-87
2023/11/20 06:59:19;;;;;;;0.10;0.10;;;;;;;;;;5040495;28;20072;-87
2023/11/20 07:01:45;;;;;;;0.10;0.10;;;;;;;;;;5040149;28;20122;-87
2023/11/20 07:04:11;;;;;;;0.10;0.10;;;;;;;;;;5040134;28;20040;-86
2023/11/20 07:06:42;;;;;;;0.10;0.10;;;;;;;;;;5040242;28;20044;-86
2023/11/20 07:09:13;;;;;;;0.10;0.10;;;;;;;;;;5024550;28;20052;-86
2023/11/20 07:11:40;;;;;;;0.10;0.10;;;;;;;;;;5041013;28;20041;-87
2023/11/20 07:14:08;;;;;;;0.10;0.10;;;;;;;;;;5040082;28;20048;-86
2023/11/20 07:16:34;;;;;;;0.10;0.10;;;;;;;;;;5040364;28;20480;-86
2023/11/20 07:19:00;;;;;;;0.10;0.10;;;;;;;;;;5023331;28;20044;-86
2023/11/20 07:21:26;;;;;;;0.10;0.10;;;;;;;;;;5039885;28;20055;-87
2023/11/20 07:23:52;;;;;;;0.10;0.10;;;;;;;;;;5040121;28;20044;-86
2023/11/20 07:26:18;;;;;;;0.10;0.10;;;;;;;;;;5023689;28;20040;-86
2023/11/20 07:28:46;;;;;;;0.10;0.10;;;;;;;;;;5039832;28;20123;-86
2023/11/20 07:31:12;;;;;;;0.10;0.10;;;;;;;;;;5023512;28;20036;-86
2023/11/20 07:33:39;;;;;;;0.10;0.10;;;;;;;;;;5039788;28;20040;-86
2023/11/20 07:36:05;;;;;;;0.10;0.10;;;;;;;;;;5039571;28;20046;-86
2023/11/20 07:38:31;;;;;;;0.10;0.10;;;;;;;;;;5039833;28;20037;-86
2023/11/20 07:41:02;;;;;;;0.10;0.10;;;;;;;;;;5056097;28;20045;-91
2023/11/20 07:43:28;;;;;;;0.10;0.10;;;;;;;;;;5024270;28;20039;-87
2023/11/20 07:45:54;;;;;;;0.10;0.10;;;;;;;;;;5039567;28;20040;-86
2023/11/20 07:48:20;;;;;;;0.10;0.10;;;;;;;;;;5056236;28;20035;-87
2023/11/20 07:50:48;;;;;;;0.10;0.10;;;;;;;;;;5039365;28;20491;-87
2023/11/20 07:53:14;;;;;;;0.10;0.10;;;;;;;;;;5026444;28;20045;-86
2023/11/20 07:55:40;;;;;;;0.10;0.10;;;;;;;;;;5035776;28;20539;-86
2023/11/20 07:58:06;;;;;;;0.10;0.10;;;;;;;;;;5019370;28;20132;-86
2023/11/20 08:00:32;;;;;;;0.10;0.10;;;;;;;;;;5004088;28;20060;-86
2023/11/20 08:02:58;;;;;;;0.10;0.10;;;;;;;;;;5055664;28;20507;-86
2023/11/20 08:05:25;;;;;;;0.10;0.10;;;;;;;;;;5038848;28;20040;-86
2023/11/20 08:07:51;;;;;;;0.10;0.10;;;;;;;;;;5055092;28;20050;-86
2023/11/20 08:10:18;;;;;;;0.10;0.10;;;;;;;;;;4999814;28;20045;-86
2023/11/20 08:12:46;;;;;;;0.10;0.10;;;;;;;;;;5017569;28;20036;-86
2023/11/20 08:15:12;;;;;;;0.10;0.10;;;;;;;;;;5019455;28;20369;-86
2023/11/20 08:17:39;;;;;;;0.10;0.10;;;;;;;;;;5019035;28;20044;-86
2023/11/20 08:20:06;;;;;;;0.10;0.10;;;;;;;;;;5018931;28;20048;-86
2023/11/20 08:22:35;;;;;;;0.10;0.10;;;;;;;;;;5019120;28;20045;-86
2023/11/20 08:25:01;;;;;;;0.10;0.10;;;;;;;;;;5002929;28;20511;-86
2023/11/20 08:27:27;;;;;;;0.15;0.15;;;;;;;;;;5019266;28;20041;-86
2023/11/20 08:29:54;;;;;;;0.10;0.10;;;;;;;;;;5001660;28;20492;-87
2023/11/20 08:32:20;;;;;;;0.10;0.10;;;;;;;;;;5002405;28;20452;-86
2023/11/20 08:34:46;;;;;;;0.10;0.10;;;;;;;;;;5018721;28;20045;-86
2023/11/20 08:37:12;;;;;;;0.10;0.10;;;;;;;;;;5018652;28;20041;-86
2023/11/20 08:39:39;;;;;;;0.10;0.10;;;;;;;;;;5034817;28;20124;-88
2023/11/20 08:42:05;;;;;;;0.10;0.10;;;;;;;;;;5002362;28;20044;-86
2023/11/20 08:44:33;;;;;;;0.15;0.15;;;;;;;;;;5018567;28;20048;-86
2023/11/20 08:46:59;;;;;;;0.10;0.10;;;;;;;;;;5002755;28;20483;-86
2023/11/20 08:49:26;;;;;;;0.10;0.10;;;;;;;;;;5018635;28;20037;-88
2023/11/20 08:51:52;;;;;;;0.10;0.10;;;;;;;;;;5034807;28;20049;-87
2023/11/20 08:54:18;;;;;;;0.10;0.10;;;;;;;;;;5018502;28;20090;-86
2023/11/20 08:56:46;;;;;;;0.10;0.10;;;;;;;;;;5018411;28;20438;-86
2023/11/20 08:59:12;;;;;;;0.10;0.10;;;;;;;;;;5034678;28;20052;-87
2023/11/20 09:01:39;;;;;;;0.10;0.10;;;;;;;;;;5001827;28;20056;-86
2023/11/20 09:04:10;;;;;;;0.10;0.10;;;;;;;;;;5034934;28;20064;-87
2023/11/20 09:06:36;;;;;;;0.10;0.10;;;;;;;;;;5019105;28;20047;-86
2023/11/20 09:09:04;;;;;;;0.10;0.10;;;;;;;;;;5018326;28;20037;-86
2023/11/20 09:11:31;;;;;;;0.10;0.10;;;;;;;;;;5002205;28;20041;-86
2023/11/20 09:13:57;;;;;;;0.10;0.10;;;;;;;;;;5034536;28;20068;-86
2023/11/20 09:16:23;;;;;;;0.10;0.10;;;;;;;;;;5018067;28;20048;-86
2023/11/20 09:18:49;;;;;;;0.10;0.10;;;;;;;;;;5017204;28;20045;-86
2023/11/20 09:21:16;;;;;;;0.10;0.10;;;;;;;;;;5001497;28;20041;-86
2023/11/20 09:23:45;;;;;;;0.10;0.10;;;;;;;;;;5001510;28;20033;-85
2023/11/20 09:26:11;;;;;;;0.10;0.10;;;;;;;;;;5017824;28;20094;-85
2023/11/20 09:28:40;;;;;;;0.10;0.10;;;;;;;;;;5017774;28;20033;-85
2023/11/20 09:31:06;;;;;;;0.10;0.10;;;;;;;;;;5034082;28;20542;-85
2023/11/20 09:33:33;;;;;;;0.20;0.20;;;;;;;;;;5001584;28;20083;-85
2023/11/20 09:35:59;;;;;;;0.10;0.10;;;;;;;;;;5034288;28;20071;-85
2023/11/20 09:38:25;;;;;;;0.10;0.10;;;;;;;;;;5017604;28;20078;-85
2023/11/20 09:40:52;;;;;;;0.10;0.10;;;;;;;;;;5017782;28;20062;-85
2023/11/20 09:43:19;;;;;;;0.10;0.10;;;;;;;;;;5017720;28;20037;-85
2023/11/20 09:45:45;;;;;;;0.10;0.10;;;;;;;;;;5017721;28;20167;-84
2023/11/20 09:48:11;;;;;;;0.10;0.10;;;;;;;;;;5017721;28;20116;-84
2023/11/20 09:50:37;;;;;;;0.10;0.10;;;;;;;;;;5017646;28;20041;-87
2023/11/20 09:53:05;;;;;;;0.10;0.10;;;;;;;;;;5017464;28;20033;-84
2023/11/20 09:55:31;;;;;;;0.10;0.10;;;;;;;;;;5033631;28;20045;-86
2023/11/20 09:57:57;;;;;;;0.17;0.17;;;;;;;;;;5033913;28;20408;-85
2023/11/20 10:00:24;;;;;;;0.10;0.10;;;;;;;;;;5033495;28;20098;-85
2023/11/20 10:02:50;;;;;;;0.10;0.10;;;;;;;;;;5001412;28;20052;-85
2023/11/20 10:05:28;;;;;;;0.10;0.10;;;;;;;;;;4981732;28;20045;-85
2023/11/20 10:07:56;;;;;;;0.10;0.10;;;;;;;;;;5013126;28;20077;-85
2023/11/20 10:10:22;;;;;;;0.10;0.10;;;;;;;;;;5017275;28;20123;-85
2023/11/20 10:12:48;;;;;;;0.10;0.10;;;;;;;;;;5017725;28;20072;-84
2023/11/20 10:15:14;;;;;;;0.10;0.10;;;;;;;;;;5017497;28;20083;-85
2023/11/20 10:17:40;;;;;;;0.10;0.10;;;;;;;;;;5017431;28;20036;-85
2023/11/20 10:20:10;;;;;;;0.10;0.10;;;;;;;;;;5033466;28;20041;-85
2023/11/20 10:22:36;;;;;;;0.10;0.10;;;;;;;;;;5051458;28;20414;-85
2023/11/20 10:25:06;;;;;;;0.10;0.10;;;;;;;;;;5017580;28;20052;-85
2023/11/20 10:27:32;;;;;;;0.10;0.10;;;;;;;;;;5033798;28;20041;-85
2023/11/20 10:29:58;;;;;;;0.10;0.10;;;;;;;;;;5033380;28;20127;-85
2023/11/20 10:32:27;;;;;;;0.10;0.10;;;;;;;;;;5004724;28;20072;-85
2023/11/20 10:35:14;;;;;;;0.10;0.10;;;;;;;;;;5019730;28;20101;-85
2023/11/20 10:37:57;;;;;;;0.10;0.10;;;;;;;;;;5037600;28;20391;-85
2023/11/20 10:40:24;;;;;;;0.10;0.10;;;;;;;;;;5021076;28;20095;-85
2023/11/20 10:42:49;;;;;;;0.10;0.10;;;;;;;;;;5037219;28;20077;-85
2023/11/20 10:45:15;;;;;;;0.10;0.10;;;;;;;;;;5037042;28;20079;-85
2023/11/20 10:47:42;;;;;;;0.10;0.10;;;;;;;;;;5020882;28;20051;-85
2023/11/20 10:50:08;;;;;;;0.20;0.20;;;;;;;;;;5020683;28;20060;-86
2023/11/20 10:52:36;;;;;;;0.10;0.10;;;;;;;;;;5030758;28;20426;-85
2023/11/20 10:55:02;;;;;;;0.10;0.10;;;;;;;;;;5040580;28;20097;-85
2023/11/20 10:57:29;;;;;;;0.10;0.10;;;;;;;;;;5041248;28;20075;-84
2023/11/20 10:59:56;;;;;;;0.10;0.10;;;;;;;;;;5032290;28;20041;-85
2023/11/20 11:02:22;;;;;;;0.10;0.10;;;;;;;;;;5028336;28;20044;-84
2023/11/20 11:04:50;;;;;;;0.10;0.10;;;;;;;;;;5040263;28;20051;-84
2023/11/20 11:07:16;;;;;;;0.10;0.10;;;;;;;;;;5023436;28;20044;-84
2023/11/20 11:09:42;;;;;;;0.10;0.10;;;;;;;;;;5040246;28;20040;-85
2023/11/20 11:12:10;;;;;;;0.10;0.10;;;;;;;;;;5034601;28;20044;-85
2023/11/20 11:14:36;;;;;;;0.10;0.10;;;;;;;;;;5003536;28;20040;-85
2023/11/20 11:17:03;;;;;;;0.10;0.10;;;;;;;;;;5036872;28;20388;-87
2023/11/20 11:19:30;;;;;;;0.10;0.10;;;;;;;;;;5020128;28;20049;-84
2023/11/20 11:22:03;;;;;;;0.10;0.10;;;;;;;;;;5017986;28;20041;-84
2023/11/20 11:24:31;;;;;;;0.10;0.10;;;;;;;;;;5020337;28;20079;-84
2023/11/20 11:27:00;;;;;;;0.10;0.10;;;;;;;;;;5032682;28;20056;-85
2023/11/20 11:29:28;;;;;;;0.10;0.10;;;;;;;;;;5056349;28;20040;-85
2023/11/20 11:32:06;;;;;;;0.17;0.17;;;;;;;;;;5043365;28;20063;-85
2023/11/20 11:34:47;;;;;;;0.10;0.10;;;;;;;;;;5036385;28;20526;-85
2023/11/20 11:37:20;;;;;;;0.10;0.10;;;;;;;;;;5050646;28;20127;-88
2023/11/20 11:39:55;;;;;;;0.10;0.10;;;;;;;;;;5039453;28;20127;-86
2023/11/20 11:42:26;;;;;;;8.57;0.40;;;;;;;;;;5038196;28;20487;-85
2023/11/20 11:44:56;;;;;;;0.10;0.10;;;;;;;;;;5023023;28;20056;-85
2023/11/20 11:47:23;;;;;;;0.10;0.10;;;;;;;;;;5038974;28;20032;-85
2023/11/20 11:49:49;;;;;;;0.10;0.10;;;;;;;;;;5039300;28;20040;-85
2023/11/20 11:52:18;;;;;;;0.10;0.10;;;;;;;;;;5039310;28;20572;-85
2023/11/20 11:54:44;;;;;;;0.10;0.10;;;;;;;;;;5038924;28;20059;-85
2023/11/20 11:57:15;;;;;;;0.10;0.10;;;;;;;;;;5039511;28;20044;-85
2023/11/20 11:59:42;;;;;;;0.10;0.10;;;;;;;;;;5039364;28;20418;-85
2023/11/20 12:02:09;;;;;;;0.20;0.20;;;;;;;;;;5019202;28;20059;-83
2023/11/20 12:04:56;;;;;;;0.10;0.10;;;;;;;;;;5052616;28;20052;-85
2023/11/20 12:07:41;;;;;;;0.10;0.10;;;;;;;;;;5052333;28;20040;-86
2023/11/20 12:10:11;;;;;;;0.10;0.10;;;;;;;;;;5052371;28;20045;-85
2023/11/20 12:12:47;;;;;;;0.20;0.20;;;;;;;;;;5036340;28;20049;-85
2023/11/20 12:15:39;;;;;;;0.10;0.10;;;;;;;;;;5052132;28;20083;-85
2023/11/20 12:18:11;;;;;;;0.10;0.10;;;;;;;;;;5052324;28;20496;-86
2023/11/20 12:20:43;;;;;;;0.10;0.10;;;;;;;;;;5052104;28;20120;-85
2023/11/20 12:23:17;;;;;;;0.10;0.10;;;;;;;;;;5051951;28;20045;-83
2023/11/20 12:25:43;;;;;;;0.10;0.10;;;;;;;;;;5019242;28;20499;-89
2023/11/20 12:28:09;;;;;;;0.10;0.10;;;;;;;;;;5035744;28;20033;-88
2023/11/20 12:30:35;;;;;;;0.10;0.10;;;;;;;;;;5032530;28;20068;-85
2023/11/20 12:33:02;;;;;;;0.10;0.10;;;;;;;;;;5015302;28;20037;-84
2023/11/20 12:35:28;;;;;;;0.10;0.10;;;;;;;;;;4999015;28;20042;-85
2023/11/20 12:37:54;;;;;;;0.10;0.10;;;;;;;;;;5015287;28;20057;-85
2023/11/20 12:40:20;;;;;;;0.20;0.20;;;;;;;;;;5015262;28;20045;-85
2023/11/20 12:42:46;;;;;;;0.10;0.10;;;;;;;;;;5015158;28;20076;-85
2023/11/20 12:45:12;;;;;;;0.10;0.10;;;;;;;;;;5015139;28;20045;-84
2023/11/20 12:47:38;;;;;;;0.10;0.10;;;;;;;;;;5031619;28;20566;-85
2023/11/20 12:50:05;;;;;;;0.10;0.10;;;;;;;;;;5031298;28;20041;-85
2023/11/20 12:52:31;;;;;;;0.10;0.10;;;;;;;;;;5015214;28;20048;-84
2023/11/20 12:54:57;;;;;;;0.10;0.10;;;;;;;;;;5031522;28;20096;-85
2023/11/20 12:57:23;;;;;;;0.10;0.10;;;;;;;;;;5031449;28;20088;-85
2023/11/20 12:59:49;;;;;;;0.10;0.10;;;;;;;;;;4998551;28;20119;-85
2023/11/20 13:02:16;;;;;;;0.10;0.10;;;;;;;;;;5030952;28;20058;-85
2023/11/20 13:04:42;;;;;;;0.20;0.20;;;;;;;;;;5014486;28;20124;-86
2023/11/20 13:07:11;;;;;;;0.10;0.10;;;;;;;;;;5014960;28;20120;-85
2023/11/20 13:09:39;;;;;;;0.10;0.10;;;;;;;;;;4999116;28;20046;-85
2023/11/20 13:12:05;;;;;;;0.10;0.10;;;;;;;;;;5015363;28;20103;-84
2023/11/20 13:14:31;;;;;;;0.20;0.20;;;;;;;;;;5014703;28;20213;-85
2023/11/20 13:16:57;;;;;;;0.10;0.10;;;;;;;;;;4998452;28;20047;-85
2023/11/20 13:19:35;;;;;;;0.10;0.10;;;;;;;;;;5030737;28;20041;-85
2023/11/20 13:22:03;;;;;;;0.10;0.10;;;;;;;;;;5030958;28;20133;-86
2023/11/20 13:24:29;;;;;;;0.20;0.20;;;;;;;;;;5013778;28;20049;-84
2023/11/20 13:26:55;;;;;;;0.10;0.10;;;;;;;;;;5014696;28;20120;-85
2023/11/20 13:29:21;;;;;;;0.10;0.10;;;;;;;;;;5030776;28;20037;-85
2023/11/20 13:31:47;;;;;;;0.10;0.10;;;;;;;;;;5030789;28;20048;-85
2023/11/20 13:34:13;;;;;;;0.17;0.17;;;;;;;;;;5014450;28;20112;-85
2023/11/20 13:36:39;;;;;;;0.20;0.20;;;;;;;;;;5014571;28;20037;-84
2023/11/20 13:39:18;;;;;;;0.10;0.10;;;;;;;;;;4998085;28;20049;-84
2023/11/20 13:41:44;;;;;;;0.20;0.20;;;;;;;;;;4999860;28;20484;-84
2023/11/20 13:44:10;;;;;;;0.10;0.10;;;;;;;;;;5030752;28;20033;-83
2023/11/20 13:46:36;;;;;;;0.10;0.10;;;;;;;;;;5030985;28;20037;-83
2023/11/20 13:49:03;;;;;;;0.10;0.10;;;;;;;;;;5014291;28;20076;-84
2023/11/20 13:51:29;;;;;;;0.10;0.10;;;;;;;;;;5030566;28;20045;-84
2023/11/20 13:53:55;;;;;;;0.20;0.20;;;;;;;;;;4998010;28;20049;-84
2023/11/20 13:56:21;;;;;;;0.10;0.10;;;;;;;;;;4998200;28;20068;-85
2023/11/20 13:58:47;;;;;;;0.10;0.10;;;;;;;;;;5014279;28;20045;-85
2023/11/20 14:01:13;;;;;;;0.10;0.10;;;;;;;;;;5013855;28;20053;-85
2023/11/20 14:03:40;;;;;;;0.10;0.10;;;;;;;;;;5014322;28;20052;-85
2023/11/20 14:06:06;;;;;;;0.10;0.10;;;;;;;;;;5033059;28;20037;-86
2023/11/20 14:08:33;;;;;;;0.10;0.10;;;;;;;;;;5018293;28;20564;-85
2023/11/20 14:10:59;;;;;;;0.20;0.20;;;;;;;;;;5034391;28;20073;-86
2023/11/20 14:13:25;;;;;;;0.10;0.10;;;;;;;;;;5034386;28;20073;-86
2023/11/20 14:15:52;;;;;;;0.10;0.10;;;;;;;;;;5034272;28;20049;-86
2023/11/20 14:18:19;;;;;;;0.10;0.10;;;;;;;;;;5018095;28;20485;-85
2023/11/20 14:20:45;;;;;;;0.10;0.10;;;;;;;;;;5001646;28;20092;-85
2023/11/20 14:23:11;;;;;;;0.20;0.20;;;;;;;;;;5034421;28;20033;-86
2023/11/20 14:25:37;;;;;;;0.10;0.10;;;;;;;;;;5034261;28;20131;-87
2023/11/20 14:28:04;;;;;;;0.10;0.10;;;;;;;;;;5017958;28;20040;-86
2023/11/20 14:30:31;;;;;;;0.10;0.10;;;;;;;;;;5017808;28;20079;-88
2023/11/20 14:32:58;;;;;;;0.10;0.10;;;;;;;;;;5001760;28;20043;-91
2023/11/20 14:35:24;;;;;;;0.10;0.10;;;;;;;;;;5001898;28;20064;-86
2023/11/20 14:37:50;;;;;;;0.10;0.10;;;;;;;;;;5034047;28;20042;-87
2023/11/20 14:40:16;;;;;;;0.10;0.10;;;;;;;;;;5033986;28;20046;-86
2023/11/20 14:42:42;;;;;;;0.10;0.10;;;;;;;;;;5017520;28;20405;-86